Time;durP1;ratioP1;P1;durP2;ratioP2;P2;SDS_P1;SDS_P2;PMS_P1;PMS_P2;Temp;Humidity;BMP_temperature;BMP_pressure;BME280_temperature;BME280_humidity;BME280_pressure;Samples;Min_cycle;Max_cycle;Signal;HPM_P1;HPM_P2
2023/07/07 00:01:07;;;;;;;7.18;3.78;;;12.90;99.90;;;;;;5148086;27;20082;-73
2023/07/07 00:03:33;;;;;;;4.75;3.60;;;12.90;99.90;;;;;;5147513;27;20105;-73
2023/07/07 00:05:59;;;;;;;7.68;3.83;;;12.90;99.90;;;;;;5147813;27;20130;-73
2023/07/07 00:08:25;;;;;;;5.65;4.00;;;12.80;99.90;;;;;;5147601;27;20114;-73
2023/07/07 00:10:50;;;;;;;9.20;4.35;;;12.70;99.90;;;;;;5147498;27;20043;-73
2023/07/07 00:13:16;;;;;;;5.43;3.80;;;12.70;99.90;;;;;;5147348;27;20046;-73
2023/07/07 00:15:44;;;;;;;5.57;4.25;;;12.70;99.90;;;;;;5095871;28;20048;-73
2023/07/07 00:18:26;;;;;;;6.85;4.53;;;12.70;99.90;;;;;;5130387;27;20050;-73
2023/07/07 00:20:56;;;;;;;9.20;4.43;;;12.70;99.90;;;;;;5147371;27;20044;-73
2023/07/07 00:23:21;;;;;;;7.97;4.78;;;12.60;99.90;;;;;;5096586;28;20032;-73
2023/07/07 00:26:08;;;;;;;4.93;4.00;;;12.70;99.90;;;;;;5130306;27;20043;-73
2023/07/07 00:28:34;;;;;;;6.65;4.75;;;12.70;99.90;;;;;;5146765;27;20040;-73
2023/07/07 00:31:00;;;;;;;6.80;4.60;;;12.70;99.90;;;;;;5095865;28;20039;-73
2023/07/07 00:33:26;;;;;;;9.25;5.07;;;12.70;99.90;;;;;;5095778;28;20089;-73
2023/07/07 00:35:53;;;;;;;6.25;4.43;;;12.70;99.90;;;;;;5095916;28;20035;-73
2023/07/07 00:38:19;;;;;;;8.70;5.90;;;12.70;99.90;;;;;;5146885;27;20039;-73
2023/07/07 00:40:45;;;;;;;8.07;5.72;;;12.70;99.90;;;;;;5129761;27;20488;-73
2023/07/07 00:43:13;;;;;;;9.25;6.43;;;12.70;99.90;;;;;;5146889;27;20035;-73
2023/07/07 00:45:39;;;;;;;10.75;7.57;;;12.70;99.90;;;;;;5112387;28;20209;-73
2023/07/07 00:48:16;;;;;;;10.10;7.50;;;12.70;99.90;;;;;;5146618;27;20115;-73
2023/07/07 00:50:49;;;;;;;12.82;7.55;;;12.70;99.90;;;;;;5095428;28;20040;-73
2023/07/07 00:53:15;;;;;;;10.52;7.28;;;12.80;99.90;;;;;;5146309;27;20052;-73
2023/07/07 00:55:56;;;;;;;12.95;9.07;;;12.80;99.90;;;;;;5095097;28;20135;-73
2023/07/07 00:58:24;;;;;;;12.75;9.35;;;12.80;99.90;;;;;;5094940;28;20031;-73
2023/07/07 01:00:57;;;;;;;14.43;8.70;;;12.80;99.90;;;;;;5129527;27;20036;-73
2023/07/07 01:03:27;;;;;;;15.77;9.07;;;12.80;99.90;;;;;;5146766;27;20066;-73
2023/07/07 01:05:56;;;;;;;13.02;8.75;;;12.80;99.90;;;;;;5146711;27;20040;-73
2023/07/07 01:08:22;;;;;;;18.20;10.98;;;12.90;99.90;;;;;;5146383;27;20039;-72
2023/07/07 01:10:48;;;;;;;18.38;10.50;;;12.90;99.90;;;;;;5112054;28;20044;-73
2023/07/07 01:13:14;;;;;;;17.23;10.60;;;12.90;99.90;;;;;;5111823;28;20084;-72
2023/07/07 01:15:57;;;;;;;13.90;11.02;;;12.90;99.90;;;;;;5094858;28;20172;-73
2023/07/07 01:18:28;;;;;;;17.50;12.00;;;12.90;99.90;;;;;;5112079;28;20071;-73
2023/07/07 01:21:16;;;;;;;19.15;11.23;;;12.90;99.90;;;;;;5111731;28;20043;-73
2023/07/07 01:24:07;;;;;;;22.33;12.02;;;12.90;99.90;;;;;;5070296;28;20048;-73
2023/07/07 01:26:59;;;;;;;18.60;11.75;;;13.00;99.90;;;;;;5112110;28;20108;-73
2023/07/07 01:29:51;;;;;;;15.25;11.85;;;13.00;99.90;;;;;;5083727;28;20107;-72
2023/07/07 01:32:21;;;;;;;19.38;12.07;;;13.00;99.90;;;;;;5111589;28;20044;-73
2023/07/07 01:34:47;;;;;;;18.13;11.98;;;13.00;99.90;;;;;;5111317;28;20497;-73
2023/07/07 01:37:13;;;;;;;16.80;11.85;;;13.00;99.90;;;;;;5111521;28;20412;-73
2023/07/07 01:39:41;;;;;;;17.35;11.65;;;13.00;99.90;;;;;;5094530;28;20042;-73
2023/07/07 01:42:18;;;;;;;18.70;11.52;;;13.00;99.90;;;;;;5111483;28;20096;-74
2023/07/07 01:45:02;;;;;;;18.92;11.85;;;13.00;99.90;;;;;;5094194;28;20050;-73
2023/07/07 01:47:39;;;;;;;17.90;12.48;;;13.00;99.90;;;;;;5111184;28;20073;-73
2023/07/07 01:50:16;;;;;;;17.65;12.73;;;13.00;99.90;;;;;;5094343;28;20102;-73
2023/07/07 01:52:45;;;;;;;16.98;11.98;;;13.00;99.90;;;;;;5111076;28;20100;-72
2023/07/07 01:55:19;;;;;;;18.52;12.35;;;13.00;99.90;;;;;;5110951;28;20044;-73
2023/07/07 01:57:48;;;;;;;18.30;11.05;;;13.00;99.90;;;;;;5111285;28;20401;-73
2023/07/07 02:00:16;;;;;;;16.90;12.20;;;13.00;99.90;;;;;;5093999;28;20119;-73
2023/07/07 02:02:41;;;;;;;17.50;12.68;;;13.00;99.90;;;;;;5111465;28;20028;-72
2023/07/07 02:05:10;;;;;;;21.45;13.18;;;13.00;99.90;;;;;;5094006;28;20518;-73
2023/07/07 02:07:36;;;;;;;19.80;12.23;;;13.00;99.90;;;;;;5111159;28;20040;-73
2023/07/07 02:10:01;;;;;;;15.55;11.73;;;13.00;99.90;;;;;;5110835;28;20054;-73
2023/07/07 02:12:27;;;;;;;16.98;12.25;;;12.90;99.90;;;;;;5059962;28;20122;-73
2023/07/07 02:14:53;;;;;;;16.27;11.93;;;13.00;99.90;;;;;;5093748;28;20273;-72
2023/07/07 02:17:18;;;;;;;18.25;11.30;;;13.00;99.90;;;;;;5110905;28;20042;-73
2023/07/07 02:19:44;;;;;;;17.73;12.73;;;13.00;99.90;;;;;;5110803;28;20040;-73
2023/07/07 02:22:10;;;;;;;23.25;12.23;;;12.90;99.90;;;;;;5093790;28;20256;-73
2023/07/07 02:24:36;;;;;;;20.30;12.15;;;12.90;99.90;;;;;;5093639;28;20051;-73
2023/07/07 02:27:03;;;;;;;17.52;12.18;;;12.90;99.90;;;;;;5093782;28;20043;-73
2023/07/07 02:29:29;;;;;;;20.77;12.73;;;12.90;99.90;;;;;;5110441;28;20082;-73
2023/07/07 02:31:54;;;;;;;17.65;12.40;;;12.90;99.90;;;;;;5110857;28;20077;-73
2023/07/07 02:34:20;;;;;;;18.77;13.45;;;12.90;99.90;;;;;;5093455;28;20427;-73
2023/07/07 02:36:46;;;;;;;20.15;13.27;;;12.90;99.90;;;;;;5110140;28;20040;-73
2023/07/07 02:39:11;;;;;;;18.60;13.23;;;12.90;99.90;;;;;;5060171;28;20028;-73
2023/07/07 02:41:37;;;;;;;16.65;13.05;;;12.90;99.90;;;;;;5110605;28;20093;-73
2023/07/07 02:44:03;;;;;;;20.17;12.77;;;12.90;99.90;;;;;;5093628;28;20528;-73
2023/07/07 02:46:29;;;;;;;18.05;12.80;;;12.90;99.90;;;;;;5110222;28;20039;-73
2023/07/07 02:48:54;;;;;;;18.75;12.77;;;12.90;99.90;;;;;;5093361;28;20122;-73
2023/07/07 02:51:20;;;;;;;18.45;12.52;;;12.90;99.90;;;;;;5093054;28;20514;-72
2023/07/07 02:53:46;;;;;;;16.20;12.45;;;12.90;99.90;;;;;;5092840;28;20067;-72
2023/07/07 02:56:12;;;;;;;22.27;12.50;;;12.90;99.90;;;;;;5093012;28;20039;-72
2023/07/07 02:58:37;;;;;;;18.95;12.40;;;12.90;99.90;;;;;;5109818;28;20036;-73
2023/07/07 03:01:12;;;;;;;16.13;11.80;;;12.90;99.90;;;;;;5109977;28;20035;-72
2023/07/07 03:03:44;;;;;;;18.08;12.02;;;12.90;99.90;;;;;;5109959;28;20042;-73
2023/07/07 03:06:23;;;;;;;19.92;12.85;;;12.90;99.90;;;;;;5109650;28;20274;-72
2023/07/07 03:08:50;;;;;;;19.00;12.38;;;12.90;99.90;;;;;;5093109;28;20042;-73
2023/07/07 03:11:19;;;;;;;20.00;13.05;;;13.00;99.90;;;;;;5075921;28;20521;-72
2023/07/07 03:13:46;;;;;;;15.38;11.93;;;13.00;99.90;;;;;;5109861;28;20042;-72
2023/07/07 03:16:21;;;;;;;19.63;12.35;;;13.00;99.90;;;;;;5109449;28;20075;-73
2023/07/07 03:18:48;;;;;;;21.35;13.73;;;13.00;99.90;;;;;;5109849;28;20507;-72
2023/07/07 03:21:16;;;;;;;20.50;12.57;;;13.00;99.90;;;;;;5109358;28;20043;-72
2023/07/07 03:23:42;;;;;;;18.73;12.18;;;13.00;99.90;;;;;;5109235;28;20046;-72
2023/07/07 03:26:10;;;;;;;20.20;13.15;;;13.00;99.90;;;;;;5108838;28;20035;-72
2023/07/07 03:28:36;;;;;;;17.70;12.60;;;13.00;99.90;;;;;;5109020;28;20079;-73
2023/07/07 03:31:11;;;;;;;19.45;11.95;;;13.00;99.90;;;;;;5109238;28;20114;-73
2023/07/07 03:33:42;;;;;;;18.73;12.23;;;13.00;99.90;;;;;;5109205;28;20716;-73
2023/07/07 03:36:12;;;;;;;19.27;12.43;;;13.00;99.90;;;;;;5109645;28;20041;-73
2023/07/07 03:38:39;;;;;;;18.20;12.30;;;12.90;99.90;;;;;;5109203;28;20046;-73
2023/07/07 03:41:08;;;;;;;19.70;13.85;;;12.90;99.90;;;;;;5092222;28;20032;-73
2023/07/07 03:43:35;;;;;;;18.67;12.55;;;12.90;99.90;;;;;;5109572;28;20404;-73
2023/07/07 03:46:01;;;;;;;18.15;13.38;;;12.90;99.90;;;;;;5092472;28;20040;-73
2023/07/07 03:48:28;;;;;;;20.02;12.90;;;12.90;99.90;;;;;;5109268;28;20039;-73
2023/07/07 03:50:58;;;;;;;21.27;11.95;;;12.90;99.90;;;;;;5109208;28;20039;-73
2023/07/07 03:53:26;;;;;;;17.73;12.65;;;12.90;99.90;;;;;;5092285;28;20051;-73
2023/07/07 03:55:52;;;;;;;19.73;12.00;;;12.90;99.90;;;;;;5075364;28;20379;-73
2023/07/07 03:58:18;;;;;;;19.77;12.95;;;12.90;99.90;;;;;;5092174;28;20055;-73
2023/07/07 04:00:46;;;;;;;20.88;12.75;;;12.90;99.90;;;;;;5092502;28;20388;-73
2023/07/07 04:03:12;;;;;;;19.15;12.40;;;12.90;99.90;;;;;;5109456;28;20157;-73
2023/07/07 04:05:42;;;;;;;18.92;11.88;;;12.90;99.90;;;;;;5092512;28;20040;-73
2023/07/07 04:08:08;;;;;;;18.33;11.55;;;12.90;99.90;;;;;;5092025;28;20042;-73
2023/07/07 04:10:34;;;;;;;18.17;12.27;;;12.90;99.90;;;;;;5109469;28;20035;-73
2023/07/07 04:13:00;;;;;;;20.42;11.30;;;12.90;99.90;;;;;;5092118;28;20496;-73
2023/07/07 04:15:26;;;;;;;17.23;12.07;;;13.00;99.90;;;;;;5092382;28;20043;-73
2023/07/07 04:17:51;;;;;;;19.48;12.63;;;13.00;99.90;;;;;;5092083;28;20058;-73
2023/07/07 04:20:17;;;;;;;16.65;12.68;;;13.00;99.90;;;;;;5109316;28;20042;-73
2023/07/07 04:22:43;;;;;;;17.98;11.65;;;13.00;99.90;;;;;;5092379;28;20130;-73
2023/07/07 04:25:14;;;;;;;16.65;11.88;;;13.00;99.90;;;;;;5109203;28;20147;-73
2023/07/07 04:27:41;;;;;;;17.80;12.65;;;13.10;99.90;;;;;;5092238;28;20511;-73
2023/07/07 04:30:09;;;;;;;20.75;12.65;;;13.10;99.90;;;;;;5092149;28;20079;-73
2023/07/07 04:32:35;;;;;;;18.65;12.18;;;13.10;99.90;;;;;;5092040;28;20176;-74
2023/07/07 04:35:03;;;;;;;15.25;11.68;;;13.20;99.90;;;;;;5108821;28;20052;-73
2023/07/07 04:37:29;;;;;;;17.90;11.27;;;13.20;99.90;;;;;;5062499;28;20355;-74
2023/07/07 04:39:55;;;;;;;17.80;12.25;;;13.20;99.90;;;;;;5113145;28;20135;-74
2023/07/07 04:42:21;;;;;;;18.42;10.93;;;13.20;99.90;;;;;;5112855;28;20097;-74
2023/07/07 04:44:47;;;;;;;18.52;10.90;;;13.30;99.90;;;;;;5096262;28;20438;-74
2023/07/07 04:47:13;;;;;;;20.23;11.05;;;13.30;99.90;;;;;;5112556;28;20036;-73
2023/07/07 04:49:39;;;;;;;12.68;10.15;;;13.30;99.90;;;;;;5112788;28;20400;-74
2023/07/07 04:52:05;;;;;;;15.68;11.30;;;13.30;99.90;;;;;;5112600;28;20526;-73
2023/07/07 04:54:30;;;;;;;15.40;11.13;;;13.50;99.90;;;;;;5095295;28;20055;-73
2023/07/07 04:56:56;;;;;;;18.45;11.32;;;13.40;99.90;;;;;;5112155;28;20385;-74
2023/07/07 04:59:22;;;;;;;15.85;11.45;;;13.50;99.90;;;;;;5078446;28;20039;-73
2023/07/07 05:01:48;;;;;;;16.17;10.80;;;13.50;99.90;;;;;;5095334;28;20500;-74
2023/07/07 05:04:15;;;;;;;18.70;10.93;;;13.80;99.90;;;;;;5095462;28;20071;-74
2023/07/07 05:06:41;;;;;;;15.95;10.48;;;13.60;99.90;;;;;;5078879;28;20039;-74
2023/07/07 05:09:08;;;;;;;19.75;11.00;;;13.60;99.90;;;;;;5111959;28;20418;-74
2023/07/07 05:11:35;;;;;;;16.63;10.57;;;13.70;99.90;;;;;;5095478;28;20048;-74
2023/07/07 05:14:02;;;;;;;15.05;10.35;;;13.80;99.90;;;;;;5112131;28;20066;-74
2023/07/07 05:16:32;;;;;;;16.73;9.77;;;13.80;99.90;;;;;;5112259;28;20092;-74
2023/07/07 05:18:58;;;;;;;18.20;9.60;;;13.90;99.90;;;;;;5146295;27;20073;-74
2023/07/07 05:21:24;;;;;;;13.50;8.75;;;14.00;99.90;;;;;;5112011;27;20082;-74
2023/07/07 05:23:54;;;;;;;13.57;9.00;;;14.00;99.90;;;;;;5111967;28;20043;-73
2023/07/07 05:26:28;;;;;;;16.00;9.70;;;14.10;99.90;;;;;;5146423;27;20543;-74
2023/07/07 05:28:57;;;;;;;12.80;8.85;;;14.10;99.90;;;;;;5145763;27;20122;-74
2023/07/07 05:31:22;;;;;;;13.85;8.32;;;14.20;99.90;;;;;;5146230;27;20050;-74
2023/07/07 05:33:48;;;;;;;11.98;8.52;;;14.30;99.90;;;;;;5078050;28;20035;-73
2023/07/07 05:36:14;;;;;;;11.98;9.10;;;14.30;99.90;;;;;;5145914;27;20051;-74
2023/07/07 05:38:41;;;;;;;14.98;9.38;;;14.40;99.90;;;;;;5128837;27;20043;-74
2023/07/07 05:41:07;;;;;;;12.07;8.82;;;14.50;99.90;;;;;;5094484;28;20577;-74
2023/07/07 05:43:36;;;;;;;15.30;8.18;;;14.60;99.90;;;;;;5128681;27;20053;-74
2023/07/07 05:46:08;;;;;;;13.27;8.40;;;14.60;99.90;;;;;;5146274;27;20386;-74
2023/07/07 05:48:34;;;;;;;14.30;8.23;;;14.70;99.90;;;;;;5144405;27;20050;-74
2023/07/07 05:51:03;;;;;;;10.82;7.50;;;14.70;99.90;;;;;;5145894;27;20089;-74
2023/07/07 05:53:29;;;;;;;10.90;7.95;;;14.80;99.90;;;;;;5094024;28;20059;-74
2023/07/07 05:56:09;;;;;;;13.68;8.05;;;14.90;99.90;;;;;;5145637;27;20259;-74
2023/07/07 05:58:35;;;;;;;14.68;7.57;;;15.00;99.90;;;;;;5093636;28;20047;-74
2023/07/07 06:01:01;;;;;;;10.02;6.93;;;15.10;99.90;;;;;;5094206;28;20035;-74
2023/07/07 06:03:27;;;;;;;9.20;6.55;;;15.20;99.90;;;;;;5128142;27;20036;-74
2023/07/07 06:05:53;;;;;;;12.65;7.22;;;15.30;99.90;;;;;;5145739;27;20043;-74
2023/07/07 06:08:18;;;;;;;10.05;6.75;;;15.40;99.90;;;;;;5145343;27;20145;-74
2023/07/07 06:10:48;;;;;;;12.13;7.95;;;15.40;99.90;;;;;;5110959;27;20039;-74
2023/07/07 06:13:17;;;;;;;10.20;7.30;;;15.50;99.90;;;;;;5077032;28;20043;-74
2023/07/07 06:15:44;;;;;;;10.05;6.57;;;15.70;99.90;;;;;;5145058;27;20118;-74
2023/07/07 06:18:09;;;;;;;10.35;7.00;;;15.70;99.90;;;;;;5145204;27;20123;-74
2023/07/07 06:20:35;;;;;;;13.05;7.20;;;15.90;99.90;;;;;;5145124;27;20118;-74
2023/07/07 06:23:01;;;;;;;15.75;7.55;;;16.00;99.90;;;;;;5145494;27;20122;-74
2023/07/07 06:25:26;;;;;;;8.13;6.80;;;16.10;99.90;;;;;;5076804;28;20506;-74
2023/07/07 06:27:52;;;;;;;7.65;6.07;;;16.10;99.90;;;;;;5144829;27;20039;-74
2023/07/07 06:30:18;;;;;;;9.43;6.40;;;16.20;99.90;;;;;;5144854;27;20047;-74
2023/07/07 06:32:44;;;;;;;10.38;6.50;;;16.30;99.90;;;;;;5094047;28;20032;-74
2023/07/07 06:35:10;;;;;;;9.23;6.50;;;16.50;99.90;;;;;;5076745;28;20496;-74
2023/07/07 06:37:36;;;;;;;10.25;5.68;;;16.60;99.90;;;;;;5093915;28;20480;-74
2023/07/07 06:40:01;;;;;;;10.02;6.10;;;16.70;99.90;;;;;;5093509;28;20066;-74
2023/07/07 06:42:27;;;;;;;10.68;5.60;;;16.80;99.90;;;;;;5093410;28;20039;-74
2023/07/07 06:44:53;;;;;;;9.70;5.53;;;17.00;99.90;;;;;;5093565;28;20054;-75
2023/07/07 06:47:19;;;;;;;10.55;5.30;;;17.10;99.90;;;;;;5076455;28;20552;-74
2023/07/07 06:49:44;;;;;;;6.72;4.95;;;17.20;99.90;;;;;;5127302;27;20042;-74
2023/07/07 06:52:10;;;;;;;8.07;5.15;;;17.30;99.90;;;;;;5144702;27;20070;-74
2023/07/07 06:54:36;;;;;;;8.38;4.43;;;17.40;99.90;;;;;;5144386;27;20074;-74
2023/07/07 06:57:02;;;;;;;5.38;4.30;;;17.50;99.90;;;;;;5110597;27;20140;-74
2023/07/07 06:59:27;;;;;;;5.93;4.25;;;17.60;99.90;;;;;;5092800;28;20405;-74
2023/07/07 07:01:53;;;;;;;9.48;4.50;;;17.80;99.90;;;;;;5144610;27;20042;-74
2023/07/07 07:04:19;;;;;;;6.15;3.47;;;17.90;99.90;;;;;;5144315;27;20071;-74
2023/07/07 07:06:45;;;;;;;4.63;3.50;;;18.10;99.90;;;;;;5093360;28;20035;-74
2023/07/07 07:09:11;;;;;;;8.20;4.18;;;18.20;99.90;;;;;;5144480;27;20057;-75
2023/07/07 07:11:37;;;;;;;6.15;3.88;;;18.40;99.90;;;;;;5076188;28;20484;-74
2023/07/07 07:14:03;;;;;;;5.60;3.70;;;18.50;99.90;;;;;;5144243;27;20496;-75
2023/07/07 07:16:29;;;;;;;4.82;3.47;;;18.70;99.90;;;;;;5076399;28;20039;-75
2023/07/07 07:18:55;;;;;;;7.05;3.70;;;18.90;99.90;;;;;;5093003;28;20386;-74
2023/07/07 07:21:20;;;;;;;4.20;3.40;;;19.00;99.90;;;;;;5126904;27;20103;-75
2023/07/07 07:23:46;;;;;;;5.57;2.95;;;19.20;99.90;;;;;;5093107;28;20088;-74
2023/07/07 07:26:13;;;;;;;6.15;3.42;;;19.30;99.90;;;;;;5144312;27;20507;-74
2023/07/07 07:28:38;;;;;;;5.90;3.17;;;19.50;99.90;;;;;;5092651;28;20043;-74
2023/07/07 07:31:04;;;;;;;5.63;3.67;;;19.70;99.90;;;;;;5126827;27;20035;-75
2023/07/07 07:33:31;;;;;;;6.50;2.80;;;19.80;99.90;;;;;;5110189;27;20043;-74
2023/07/07 07:35:56;;;;;;;3.92;2.72;;;20.00;99.90;;;;;;5075838;28;20043;-74
2023/07/07 07:38:22;;;;;;;4.15;2.88;;;20.20;99.90;;;;;;5143988;27;20039;-75
2023/07/07 07:40:54;;;;;;;5.40;3.38;;;20.40;99.90;;;;;;5092592;28;20039;-75
2023/07/07 07:43:20;;;;;;;5.13;2.88;;;20.60;99.90;;;;;;5144330;27;20369;-75
2023/07/07 07:45:46;;;;;;;4.43;2.78;;;20.70;99.90;;;;;;5109692;27;20043;-75
2023/07/07 07:48:12;;;;;;;5.53;2.70;;;20.90;99.90;;;;;;5109362;28;20040;-75
2023/07/07 07:50:38;;;;;;;4.38;2.63;;;21.00;99.90;;;;;;5143880;27;20043;-75
2023/07/07 07:53:03;;;;;;;5.47;2.67;;;21.10;99.90;;;;;;5058960;28;20059;-74
2023/07/07 07:55:29;;;;;;;4.18;2.70;;;21.10;99.90;;;;;;5126716;27;20044;-75
2023/07/07 07:57:55;;;;;;;2.72;2.35;;;21.20;99.90;;;;;;5092397;28;20040;-75
2023/07/07 08:00:21;;;;;;;7.88;2.80;;;21.30;99.90;;;;;;5109508;28;20042;-75
2023/07/07 08:02:48;;;;;;;4.25;2.35;;;21.40;99.90;;;;;;5144046;27;20046;-74
2023/07/07 08:05:14;;;;;;;3.80;2.55;;;21.50;99.90;;;;;;5143675;27;20089;-75
2023/07/07 08:07:40;;;;;;;4.75;2.40;;;21.60;99.90;;;;;;5126491;28;20078;-75
2023/07/07 08:10:07;;;;;;;4.78;2.53;;;21.80;99.90;;;;;;5092338;28;20079;-75
2023/07/07 08:12:33;;;;;;;7.03;2.70;;;21.90;99.90;;;;;;5130335;27;20046;-75
2023/07/07 08:14:59;;;;;;;3.90;2.63;;;22.00;99.90;;;;;;5079601;28;20039;-75
2023/07/07 08:17:25;;;;;;;3.20;2.55;;;22.10;99.90;;;;;;5096191;28;20086;-75
2023/07/07 08:19:51;;;;;;;4.03;2.25;;;22.30;99.90;;;;;;5130546;27;20122;-76
2023/07/07 08:22:20;;;;;;;5.10;2.75;;;22.40;99.90;;;;;;5096287;28;20042;-76
2023/07/07 08:24:49;;;;;;;6.22;3.35;;;22.50;99.90;;;;;;5147813;27;20050;-76
2023/07/07 08:27:16;;;;;;;4.68;2.30;;;22.60;99.90;;;;;;5147587;27;20071;-75
2023/07/07 08:29:42;;;;;;;3.90;2.70;;;22.70;99.90;;;;;;5095890;28;20046;-76
2023/07/07 08:32:10;;;;;;;4.28;2.70;;;22.70;99.90;;;;;;5147328;27;20075;-76
2023/07/07 08:34:36;;;;;;;3.35;2.35;;;22.80;99.90;;;;;;5147736;27;20475;-76
2023/07/07 08:37:02;;;;;;;7.07;2.20;;;22.90;99.20;;;;;;5095792;28;20032;-76
2023/07/07 08:39:29;;;;;;;3.22;2.10;;;23.00;99.20;;;;;;5147371;27;20119;-76
2023/07/07 08:42:11;;;;;;;3.70;2.17;;;23.10;99.30;;;;;;5147237;27;20036;-76
2023/07/07 08:44:37;;;;;;;4.38;2.33;;;23.20;98.00;;;;;;5147306;27;20500;-76
2023/07/07 08:47:14;;;;;;;3.33;2.15;;;23.30;97.90;;;;;;5096149;28;20031;-76
2023/07/07 08:49:43;;;;;;;3.47;2.30;;;23.50;97.90;;;;;;5095586;28;20051;-76
2023/07/07 08:52:38;;;;;;;6.63;2.20;;;23.60;97.00;;;;;;5095943;28;20115;-76
2023/07/07 08:55:10;;;;;;;3.08;2.22;;;23.70;93.80;;;;;;5089459;28;20062;-77
2023/07/07 08:57:44;;;;;;;2.65;2.05;;;23.80;95.30;;;;;;5112541;28;20397;-76
2023/07/07 09:00:49;;;;;;;2.97;2.28;;;23.80;94.50;;;;;;5147022;27;20062;-76
2023/07/07 09:03:17;;;;;;;4.05;2.08;;;23.90;94.90;;;;;;5146682;27;20043;-77
2023/07/07 09:06:21;;;;;;;2.72;2.05;;;24.10;95.00;;;;;;5147071;27;20047;-75
2023/07/07 09:09:06;;;;;;;7.82;2.45;;;24.20;93.70;;;;;;5037206;28;20430;-77
2023/07/07 09:12:03;;;;;;;5.03;2.60;;;24.30;93.40;;;;;;5092143;28;20051;-76
2023/07/07 09:14:29;;;;;;;3.17;2.30;;;24.40;92.40;;;;;;5146750;27;20066;-77
2023/07/07 09:17:00;;;;;;;4.47;2.20;;;24.40;92.30;;;;;;5095237;28;20043;-76
2023/07/07 09:19:31;;;;;;;4.00;2.80;;;24.40;92.70;;;;;;5112093;28;20163;-76
2023/07/07 09:22:03;;;;;;;3.72;2.00;;;24.40;92.70;;;;;;5095068;28;20031;-76
2023/07/07 09:24:32;;;;;;;3.05;2.20;;;24.40;92.60;;;;;;5146511;27;20046;-77
2023/07/07 09:27:03;;;;;;;4.38;2.25;;;24.50;91.20;;;;;;5146721;27;20048;-76
2023/07/07 09:29:31;;;;;;;7.07;2.05;;;24.60;91.80;;;;;;5146103;27;20039;-76
2023/07/07 09:32:01;;;;;;;3.92;2.17;;;24.70;91.80;;;;;;5094769;28;20267;-76
2023/07/07 09:34:26;;;;;;;5.57;2.53;;;24.70;91.30;;;;;;5146199;27;20052;-75
2023/07/07 09:37:06;;;;;;;4.53;2.20;;;24.80;91.20;;;;;;5146501;27;20036;-75
2023/07/07 09:39:48;;;;;;;4.88;2.00;;;24.90;91.10;;;;;;5094754;28;20126;-75
2023/07/07 09:42:26;;;;;;;3.92;2.00;;;24.90;90.70;;;;;;5094377;28;20068;-76
2023/07/07 09:45:22;;;;;;;2.20;2.00;;;25.00;88.80;;;;;;5146354;27;20039;-75
2023/07/07 09:47:51;;;;;;;3.30;2.35;;;25.00;90.00;;;;;;5145897;27;20036;-76
2023/07/07 09:50:54;;;;;;;3.05;1.88;;;25.00;89.80;;;;;;5094357;28;20564;-76
2023/07/07 09:53:23;;;;;;;;;;;25.10;89.60;;;;;;5094818;28;20058;-75
2023/07/07 09:55:49;;;;;;;2.97;2.22;;;25.20;89.80;;;;;;5112265;28;20342;-75
2023/07/07 09:58:18;;;;;;;3.80;2.17;;;25.30;90.00;;;;;;5095068;28;20043;-75
2023/07/07 10:00:52;;;;;;;3.75;2.00;;;25.40;89.80;;;;;;5094651;28;20043;-75
2023/07/07 10:03:25;;;;;;;4.95;2.50;;;25.50;87.30;;;;;;5146886;27;20565;-75
2023/07/07 10:05:53;;;;;;;3.40;2.13;;;25.50;87.60;;;;;;5094988;28;20109;-74
2023/07/07 10:08:19;;;;;;;7.22;2.45;;;25.50;88.50;;;;;;5094336;28;20100;-75
2023/07/07 10:10:52;;;;;;;4.05;2.20;;;25.60;88.70;;;;;;5129052;27;20127;-75
2023/07/07 10:13:18;;;;;;;3.65;2.10;;;25.70;88.60;;;;;;5146206;27;20092;-75
2023/07/07 10:15:47;;;;;;;6.60;3.00;;;25.80;88.30;;;;;;5111684;28;20399;-75
2023/07/07 10:18:25;;;;;;;4.60;2.40;;;25.90;86.70;;;;;;5094567;28;20150;-75
2023/07/07 10:20:55;;;;;;;2.92;2.28;;;26.00;86.60;;;;;;5096063;28;20046;-75
2023/07/07 10:23:21;;;;;;;4.88;2.65;;;26.10;87.60;;;;;;5095016;28;20206;-75
2023/07/07 10:25:47;;;;;;;3.83;2.45;;;26.20;88.10;;;;;;5094797;28;20520;-73
2023/07/07 10:28:16;;;;;;;3.75;2.45;;;26.30;86.20;;;;;;5095543;28;20047;-75
2023/07/07 10:30:43;;;;;;;3.83;2.45;;;26.30;85.20;;;;;;5145705;27;20096;-75
2023/07/07 10:33:11;;;;;;;4.28;2.80;;;26.40;86.10;;;;;;5095078;28;20085;-76
2023/07/07 10:35:37;;;;;;;4.90;2.33;;;26.30;85.50;;;;;;5146262;27;20120;-74
2023/07/07 10:38:04;;;;;;;3.88;2.35;;;26.50;84.80;;;;;;5145931;27;20082;-75
2023/07/07 10:40:30;;;;;;;4.57;2.53;;;26.50;83.80;;;;;;5095376;28;20044;-75
2023/07/07 10:42:58;;;;;;;4.65;2.72;;;26.40;82.20;;;;;;5094971;28;20031;-76
2023/07/07 10:45:24;;;;;;;6.35;2.20;;;26.40;83.20;;;;;;5094888;28;20035;-75
2023/07/07 10:47:51;;;;;;;7.55;2.65;;;26.50;83.90;;;;;;5146986;27;20050;-75
2023/07/07 10:50:22;;;;;;;4.55;2.20;;;26.60;83.30;;;;;;5094406;28;20047;-75
2023/07/07 10:53:12;;;;;;;3.67;2.10;;;26.70;84.00;;;;;;5146891;27;20572;-75
2023/07/07 10:56:03;;;;;;;4.80;2.53;;;26.80;80.20;;;;;;5144765;27;20047;-75
2023/07/07 10:59:04;;;;;;;2.58;1.95;;;26.80;79.90;;;;;;5144329;27;20050;-75
2023/07/07 11:01:59;;;;;;;3.97;2.45;;;26.90;81.70;;;;;;5076828;28;20048;-75
2023/07/07 11:04:43;;;;;;;3.15;2.20;;;26.90;80.00;;;;;;5093110;28;20048;-75
2023/07/07 11:08:03;;;;;;;3.72;2.38;;;26.90;80.40;;;;;;5093399;28;20039;-75
2023/07/07 11:10:48;;;;;;;3.92;2.35;;;26.90;79.80;;;;;;5110095;27;20097;-75
2023/07/07 11:13:35;;;;;;;5.35;2.58;;;27.00;78.30;;;;;;5092929;28;20434;-76
2023/07/07 11:16:01;;;;;;;3.58;2.47;;;27.10;81.20;;;;;;5144376;27;20044;-75
2023/07/07 11:18:42;;;;;;;3.42;2.15;;;27.10;77.10;;;;;;5092989;28;20059;-75
2023/07/07 11:21:17;;;;;;;2.78;1.95;;;27.10;76.50;;;;;;5092973;28;20035;-76
2023/07/07 11:24:07;;;;;;;4.82;2.72;;;27.10;78.20;;;;;;5092955;28;20047;-75
2023/07/07 11:26:49;;;;;;;3.13;2.30;;;27.30;78.70;;;;;;5144350;27;20047;-75
2023/07/07 11:29:22;;;;;;;4.10;2.40;;;27.30;79.10;;;;;;5092818;28;20043;-75
2023/07/07 11:32:14;;;;;;;4.88;2.33;;;27.40;78.80;;;;;;5144162;27;20040;-76
2023/07/07 11:34:42;;;;;;;4.00;2.40;;;27.30;76.60;;;;;;5144282;27;20062;-75
2023/07/07 11:37:23;;;;;;;2.90;1.95;;;27.40;77.70;;;;;;5092990;28;20438;-76
2023/07/07 11:40:04;;;;;;;3.35;2.05;;;27.50;75.80;;;;;;5143917;27;20515;-75
2023/07/07 11:43:07;;;;;;;3.15;2.05;;;27.50;76.90;;;;;;5092982;28;20031;-75
2023/07/07 11:45:48;;;;;;;9.27;2.50;;;27.60;75.60;;;;;;5093476;28;20050;-75
2023/07/07 11:48:28;;;;;;;4.25;2.40;;;27.60;75.00;;;;;;5148353;27;20054;-76
2023/07/07 11:51:12;;;;;;;6.57;2.53;;;27.60;73.60;;;;;;5148049;27;20111;-75
2023/07/07 11:53:59;;;;;;;5.05;2.63;;;27.60;73.60;;;;;;5096643;28;20048;-76
2023/07/07 11:56:40;;;;;;;3.92;2.35;;;27.70;74.40;;;;;;5097082;28;20048;-75
2023/07/07 11:59:43;;;;;;;4.45;2.20;;;27.70;74.20;;;;;;5147685;27;20418;-75
2023/07/07 12:02:16;;;;;;;;;;;27.70;72.10;;;;;;5148536;27;20392;-77
2023/07/07 12:04:44;;;;;;;3.17;2.03;;;27.70;72.30;;;;;;5113885;28;20265;-75
2023/07/07 12:07:26;;;;;;;2.80;2.30;;;27.90;73.40;;;;;;5130829;27;20043;-75
2023/07/07 12:09:59;;;;;;;5.20;2.58;;;27.90;71.00;;;;;;5096596;28;20118;-76
2023/07/07 12:12:38;;;;;;;3.30;2.15;;;28.00;70.80;;;;;;5096647;28;20445;-76
2023/07/07 12:15:07;;;;;;;3.70;2.25;;;28.00;68.50;;;;;;5096474;28;20404;-76
2023/07/07 12:17:40;;;;;;;5.18;2.65;;;28.00;70.40;;;;;;5096385;28;20071;-75
2023/07/07 12:20:18;;;;;;;3.15;2.17;;;28.00;69.10;;;;;;5147369;27;20485;-75
2023/07/07 12:22:46;;;;;;;5.20;2.03;;;28.00;66.90;;;;;;5113300;28;20118;-76
2023/07/07 12:25:12;;;;;;;8.38;2.92;;;28.00;68.60;;;;;;5147484;27;20281;-76
2023/07/07 12:27:51;;;;;;;6.20;2.20;;;28.10;70.40;;;;;;5147677;27;20130;-75
2023/07/07 12:30:20;;;;;;;7.03;2.30;;;28.10;67.30;;;;;;5096814;28;20128;-76
2023/07/07 12:32:46;;;;;;;3.72;2.17;;;28.10;67.80;;;;;;5095936;28;20040;-76
2023/07/07 12:35:18;;;;;;;2.63;2.17;;;28.10;67.50;;;;;;5147380;27;20062;-76
2023/07/07 12:37:44;;;;;;;7.55;2.47;;;28.10;67.90;;;;;;5095908;28;20043;-76
2023/07/07 12:40:13;;;;;;;3.28;2.13;;;28.20;69.60;;;;;;5096215;28;20035;-76
2023/07/07 12:42:42;;;;;;;5.75;2.40;;;28.10;67.50;;;;;;5147120;27;20373;-76
2023/07/07 12:45:27;;;;;;;4.57;2.25;;;28.10;66.50;;;;;;5130194;27;20039;-76
2023/07/07 12:48:05;;;;;;;4.55;2.50;;;28.20;67.90;;;;;;5147187;27;20032;-76
2023/07/07 12:50:35;;;;;;;4.97;2.30;;;28.20;67.30;;;;;;5147061;27;20040;-76
2023/07/07 12:53:05;;;;;;;4.20;2.22;;;28.30;67.60;;;;;;5095730;28;20046;-76
2023/07/07 12:55:36;;;;;;;2.58;2.03;;;28.30;67.50;;;;;;5146648;27;20059;-76
2023/07/07 12:58:33;;;;;;;2.85;2.25;;;28.30;65.50;;;;;;5094887;28;20046;-76